Kaleen Mc Allister — WDB3847 — position and weather

sailwx.info

Track history (hours):
 
Tides and Currents Weather Stations Pressure Air Temp Water Temp Dewpoint Dewpoint Depression Visibility Wind Speed Wind Dir Waves Ship Positions

Kaleen Mc Allister

Owner: MC ALLISTER TOWING & TRANSPORTATION INC, NEW YORK, NY. More information available from US FCC via Universal Licensing System and Coast Guard Vessel Documentation Center.

Last reported at 2017-May-25 16:51 UTC. Time now 2017-May-25 18:01 UTC.
Position N 39°16' W 076°35'.

Length 31 m; draft 4 m.

Type: Tug. MMSI: 366891960.

Date/timePositionNaut miles runAvg speedWind from/ knotsBaromVisibWave heightAir tempDewpointWater temp
2017-May-25 16:51N 39°16' W 076°35'0 0.0
2017-May-25 16:29N 39°16' W 076°35'0 0.0
2017-May-25 15:32N 39°16' W 076°35'0 0.0
2017-May-25 15:19N 39°16' W 076°35'0 0.0
2017-May-25 14:43N 39°16' W 076°35'0 0.0
2017-May-25 13:30N 39°16' W 076°35'0 0.0
2017-May-25 12:43N 39°16' W 076°35'0 0.0
2017-May-25 12:30N 39°16' W 076°35'0 0.0
2017-May-25 11:57N 39°16' W 076°35'0 0.0
2017-May-25 11:30N 39°16' W 076°35'0 0.0
2017-May-25 11:00N 39°16' W 076°35'0 0.0
2017-May-25 10:25N 39°16' W 076°35'0 0.0
2017-May-25 09:57N 39°16' W 076°35'0 0.0
2017-May-25 09:30N 39°16' W 076°35'0 0.0
2017-May-25 08:51N 39°16' W 076°35'0 0.0
2017-May-25 08:30N 39°16' W 076°35'0 0.0
2017-May-25 08:00N 39°16' W 076°35'0 0.0
2017-May-25 07:30N 39°16' W 076°35'0 0.0
2017-May-25 07:00N 39°16' W 076°35'0 0.0
2017-May-25 06:23N 39°16' W 076°35'0 0.0
2017-May-25 06:00N 39°16' W 076°35'0 0.0
2017-May-25 05:30N 39°16' W 076°35'0 0.0
2017-May-25 05:00N 39°16' W 076°35'0 0.0
2017-May-25 04:30N 39°16' W 076°35'0 0.0
2017-May-25 04:00N 39°16' W 076°35'0 0.0
2017-May-25 03:30N 39°16' W 076°35'0 0.0
2017-May-25 03:00N 39°16' W 076°35'0 0.0
2017-May-25 02:30N 39°16' W 076°35'0 0.0
2017-May-25 02:00N 39°16' W 076°35'0 0.0
2017-May-25 01:30N 39°16' W 076°35'0 0.0
2017-May-25 01:00N 39°16' W 076°35'0 0.0
2017-May-25 00:30N 39°16' W 076°35'0 0.0
2017-May-25 00:00N 39°16' W 076°35'0 0.0
2017-May-24 23:30N 39°16' W 076°35'0 0.0
2017-May-24 22:58N 39°16' W 076°35'0 0.0
2017-May-24 22:30N 39°16' W 076°35'0 0.0
2017-May-24 22:00N 39°16' W 076°35'0 0.0
2017-May-24 21:29N 39°16' W 076°35'0 0.0
2017-May-24 20:55N 39°16' W 076°35'0 0.0
2017-May-24 20:30N 39°16' W 076°35'0 0.0
2017-May-24 20:00N 39°16' W 076°35'0 0.0
2017-May-24 19:30N 39°16' W 076°35'0 0.0
2017-May-24 19:00N 39°16' W 076°35'0 0.0
2017-May-24 18:30N 39°16' W 076°35'0 0.0
2017-May-24 17:00N 39°16' W 076°35'1 1.6
2017-May-24 16:30N 39°15' W 076°35'0 0.2
2017-May-24 15:56N 39°15' W 076°35'2 4.0
2017-May-24 15:30N 39°15' W 076°32'1 1.3
2017-May-24 15:00N 39°15' W 076°32'0 0.0
2017-May-24 14:30N 39°15' W 076°32'3 3.1
2017-May-24 13:30N 39°13' W 076°35'1 2.1
2017-May-24 13:00N 39°13' W 076°34'1 3.0
2017-May-24 12:30N 39°13' W 076°32'2 3.3
2017-May-24 12:00N 39°15' W 076°32'0 0.0
2017-May-24 11:30N 39°15' W 076°32'1 1.7
2017-May-24 11:00N 39°15' W 076°33'1 1.5
2017-May-24 10:25N 39°15' W 076°32'1 1.3
2017-May-24 09:53N 39°14' W 076°33'3 6.4
2017-May-24 09:29N 39°16' W 076°35'0 0.0
2017-May-24 08:55N 39°16' W 076°35'0 0.0
2017-May-24 08:30N 39°16' W 076°35'0 0.0
2017-May-24 08:00N 39°16' W 076°35'0 0.0
2017-May-24 07:30N 39°16' W 076°35'0 0.0
2017-May-24 07:00N 39°16' W 076°35'0 0.0
2017-May-24 06:30N 39°16' W 076°35'0 0.0
2017-May-24 06:00N 39°16' W 076°35'0 0.0
2017-May-24 05:19N 39°16' W 076°35'0 0.0
2017-May-24 05:00N 39°16' W 076°35'0 0.0
2017-May-24 03:54N 39°16' W 076°35'0 0.0
2017-May-24 03:28N 39°16' W 076°35'0 0.0
2017-May-24 03:00N 39°16' W 076°35'0 0.0
2017-May-24 02:29N 39°16' W 076°35'0 0.0
2017-May-23 23:22N 39°16' W 076°35'0 0.0
2017-May-23 23:00N 39°16' W 076°35'0 0.0
2017-May-23 22:30N 39°16' W 076°35'0 0.0
2017-May-23 21:59N 39°16' W 076°35'0 0.0
2017-May-23 21:30N 39°16' W 076°35'0 0.0
2017-May-23 21:00N 39°16' W 076°35'0 0.0
2017-May-23 20:30N 39°16' W 076°35'0 0.0
2017-May-23 20:00N 39°16' W 076°35'0 0.0
2017-May-23 19:29N 39°16' W 076°35'0 0.0
2017-May-23 18:56N 39°16' W 076°35'0 0.4
2017-May-23 18:30N 39°16' W 076°35'2 5.0
2017-May-23 18:00N 39°15' W 076°32'1 1.3
2017-May-23 17:29N 39°14' W 076°33'2 3.5
2017-May-23 17:00N 39°15' W 076°35'1 0.8
2017-May-23 15:37N 39°16' W 076°35'0 1.3
2017-May-23 15:30N 39°16' W 076°35'1 2.4
2017-May-23 15:00N 39°15' W 076°34'1 2.1
2017-May-23 14:30N 39°16' W 076°35'0 0.0
2017-May-23 13:30N 39°16' W 076°35'0 0.0
2017-May-23 12:58N 39°16' W 076°35'0 0.0
2017-May-23 12:30N 39°16' W 076°35'0 0.0
2017-May-23 12:00N 39°16' W 076°35'0 0.0
2017-May-23 11:30N 39°16' W 076°35'0 0.0
2017-May-23 11:00N 39°16' W 076°35'0 0.0
2017-May-23 10:20N 39°16' W 076°35'0 0.0
2017-May-23 10:00N 39°16' W 076°35'0 0.0
2017-May-23 09:30N 39°16' W 076°35'1 2.1
2017-May-23 09:00N 39°15' W 076°35'0 0.8
2017-May-23 08:27N 39°15' W 076°34'2 4.7
2017-May-23 08:00N 39°14' W 076°33'3 5.9
2017-May-23 07:30N 39°16' W 076°35'0 0.0
2017-May-23 07:00N 39°16' W 076°35'0 0.0
2017-May-23 06:30N 39°16' W 076°35'0 0.0
2017-May-23 06:00N 39°16' W 076°35'0 0.0
2017-May-23 05:30N 39°16' W 076°35'0 0.0
2017-May-23 05:00N 39°16' W 076°35'0 0.0
2017-May-23 04:30N 39°16' W 076°35'0 0.0
2017-May-23 04:00N 39°16' W 076°35'0 0.0
2017-May-23 03:30N 39°16' W 076°35'0 0.0
2017-May-23 03:00N 39°16' W 076°35'0 0.0
2017-May-23 02:30N 39°16' W 076°35'0 0.0
2017-May-23 02:00N 39°16' W 076°35'0 0.0
2017-May-23 01:30N 39°16' W 076°35'0 0.0
2017-May-23 01:00N 39°16' W 076°35'0 0.0
2017-May-23 00:30N 39°16' W 076°35'0 0.0
2017-May-23 00:00N 39°16' W 076°35'0 0.0
2017-May-22 23:29N 39°16' W 076°35'0 0.0
2017-May-22 22:59N 39°16' W 076°35'0 0.0
2017-May-22 22:30N 39°16' W 076°35'0 0.0
2017-May-22 21:59N 39°16' W 076°35'0 0.0
2017-May-22 21:16N 39°16' W 076°35'0 0.0
2017-May-22 20:53N 39°16' W 076°35'0 0.0
2017-May-22 20:30N 39°16' W 076°35'0 0.0
2017-May-22 20:00N 39°16' W 076°35'0 0.0
2017-May-22 19:29N 39°16' W 076°35'0 0.0
2017-May-22 19:00N 39°16' W 076°35'0 0.0
2017-May-22 18:28N 39°16' W 076°35'0 0.0
2017-May-22 17:22N 39°16' W 076°35'0 0.0
2017-May-22 16:54N 39°16' W 076°35'0 0.0
2017-May-22 16:28N 39°16' W 076°35'0 0.0
2017-May-22 15:48N 39°16' W 076°35'0 0.0
2017-May-22 15:19N 39°16' W 076°35'0 0.0
2017-May-22 14:45N 39°16' W 076°35'0 0.0
2017-May-22 14:00N 39°16' W 076°35'0 0.0
2017-May-22 13:23N 39°16' W 076°35'0 0.3
2017-May-22 13:00N 39°16' W 076°35'2 3.5
2017-May-22 12:20N 39°14' W 076°33'1 2.7
2017-May-22 12:00N 39°15' W 076°34'1 0.3
2017-May-22 07:08N 39°16' W 076°35'0 0.0
2017-May-22 07:00N 39°16' W 076°35'0 0.0
2017-May-22 06:30N 39°16' W 076°35'0 0.0
2017-May-22 06:00N 39°16' W 076°35'0 0.0
2017-May-22 05:30N 39°16' W 076°35'0 0.0
2017-May-22 05:00N 39°16' W 076°35'0 0.0
2017-May-22 04:30N 39°16' W 076°35'0 0.0
2017-May-22 04:00N 39°16' W 076°35'0 0.0
2017-May-22 03:30N 39°16' W 076°35'0 0.0
2017-May-22 03:00N 39°16' W 076°35'0 0.0
2017-May-22 02:30N 39°16' W 076°35'0 0.0
2017-May-22 02:00N 39°16' W 076°35'0 0.0
2017-May-22 01:30N 39°16' W 076°35'0 0.0
2017-May-22 01:00N 39°16' W 076°35'0 0.0
2017-May-22 00:30N 39°16' W 076°35'0 0.0
2017-May-22 00:00N 39°16' W 076°35'0 0.0
2017-May-21 23:30N 39°16' W 076°35'0 0.0
2017-May-21 23:00N 39°16' W 076°35'3 6.8
2017-May-21 22:30N 39°13' W 076°32'1 1.3
2017-May-21 22:00N 39°13' W 076°32'2 3.9
2017-May-21 21:30N 39°15' W 076°33'2 3.9
2017-May-21 21:00N 39°16' W 076°35'0 0.0
2017-May-21 20:30N 39°16' W 076°35'0 0.0
2017-May-21 20:00N 39°16' W 076°35'0 0.0
2017-May-21 19:30N 39°16' W 076°35'0 0.0
2017-May-21 19:00N 39°16' W 076°35'0 0.0
2017-May-21 18:30N 39°16' W 076°35'0 0.0
2017-May-21 18:00N 39°16' W 076°35'0 0.0
2017-May-21 17:30N 39°16' W 076°35'0 0.0
2017-May-21 17:00N 39°16' W 076°35'0 0.0
2017-May-21 16:30N 39°16' W 076°35'0 0.0
2017-May-21 16:00N 39°16' W 076°35'0 0.0
2017-May-21 15:30N 39°16' W 076°35'0 0.0
2017-May-21 15:00N 39°16' W 076°35'0 0.0
2017-May-21 14:30N 39°16' W 076°35'0 0.0
2017-May-21 13:30N 39°16' W 076°35'0 0.0
2017-May-21 13:00N 39°16' W 076°35'0 0.0
2017-May-21 12:30N 39°16' W 076°35'0 0.0
2017-May-21 12:00N 39°16' W 076°35'0 0.0
2017-May-21 11:30N 39°16' W 076°35'0 0.0
2017-May-21 11:00N 39°16' W 076°35'0 0.0
2017-May-21 10:30N 39°16' W 076°35'0 0.0
2017-May-21 10:00N 39°16' W 076°35'0 0.0
2017-May-21 09:30N 39°16' W 076°35'0 0.0
2017-May-21 09:00N 39°16' W 076°35'0 0.0
2017-May-21 08:30N 39°16' W 076°35'0 0.0
2017-May-21 08:00N 39°16' W 076°35'0 0.0
2017-May-21 07:30N 39°16' W 076°35'0 0.0
2017-May-21 07:00N 39°16' W 076°35'0 0.0
2017-May-21 06:30N 39°16' W 076°35'0 0.0
2017-May-21 06:00N 39°16' W 076°35'0 0.0
2017-May-21 05:30N 39°16' W 076°35'0 0.0
2017-May-21 05:00N 39°16' W 076°35'0 0.0
2017-May-21 04:30N 39°16' W 076°35'0 0.0
2017-May-21 04:00N 39°16' W 076°35'0 0.5
2017-May-21 03:30N 39°16' W 076°35'1 2.7
2017-May-21 03:00N 39°15' W 076°33'0 0.7
2017-May-21 02:30N 39°15' W 076°33'1 2.7
2017-May-21 02:00N 39°16' W 076°35'0 0.0
2017-May-21 01:30N 39°16' W 076°35'0 0.0
2017-May-21 01:00N 39°16' W 076°35'0 0.0
2017-May-21 00:29N 39°16' W 076°35'0 0.0
2017-May-21 00:00N 39°16' W 076°35'0 0.0
2017-May-20 23:30N 39°16' W 076°35'0 0.0
2017-May-20 23:00N 39°16' W 076°35'0 0.0
2017-May-20 22:30N 39°16' W 076°35'0 0.0
2017-May-20 22:00N 39°16' W 076°35'0 0.0
2017-May-20 21:30N 39°16' W 076°35'0 0.0
2017-May-20 20:57N 39°16' W 076°35'0 0.0
2017-May-20 20:30N 39°16' W 076°35'0 0.0
2017-May-20 20:00N 39°16' W 076°35'0 0.0
2017-May-20 19:30N 39°16' W 076°35'0 0.0
2017-May-20 19:00N 39°16' W 076°35'0 0.0
2017-May-20 18:30N 39°16' W 076°35'0 0.0
2017-May-20 18:00N 39°16' W 076°35'0 0.0
2017-May-20 17:30N 39°16' W 076°35'0 0.8
2017-May-20 17:00N 39°16' W 076°34'0 0.8
2017-May-20 16:30N 39°16' W 076°35'0 0.0
2017-May-20 16:00N 39°16' W 076°35'0 0.0
2017-May-20 15:30N 39°16' W 076°35'0 0.0
2017-May-20 15:00N 39°16' W 076°35'0 0.0
2017-May-20 14:00N 39°16' W 076°35'3 5.2
2017-May-20 13:30N 39°14' W 076°33'3 5.1
2017-May-20 13:00N 39°16' W 076°35'0 0.0
2017-May-20 12:30N 39°16' W 076°35'0 0.0
2017-May-20 12:00N 39°16' W 076°35'0 0.0
2017-May-20 11:30N 39°16' W 076°35'0 0.0
2017-May-20 11:00N 39°16' W 076°35'0 0.0
2017-May-20 10:30N 39°16' W 076°35'0 0.0
2017-May-20 10:00N 39°16' W 076°35'0 0.0
2017-May-20 09:30N 39°16' W 076°35'0 0.0
2017-May-20 09:00N 39°16' W 076°35'0 0.0
2017-May-20 08:30N 39°16' W 076°35'0 0.0
2017-May-20 08:00N 39°16' W 076°35'0 0.0
2017-May-20 07:28N 39°16' W 076°35'0 0.0
2017-May-20 06:53N 39°16' W 076°35'0 0.0
2017-May-20 05:53N 39°16' W 076°35'0 0.0
2017-May-20 03:15N 39°16' W 076°35'0 0.0
2017-May-20 03:00N 39°16' W 076°35'0 0.0
2017-May-20 02:30N 39°16' W 076°35'0 0.0
2017-May-20 01:59N 39°16' W 076°35'0 0.6
2017-May-20 01:30N 39°16' W 076°35'1 2.1
2017-May-20 01:00N 39°15' W 076°34'1 2.6
2017-May-20 00:30N 39°16' W 076°35'0 0.0
2017-May-20 00:00N 39°16' W 076°35'0 0.0
2017-May-19 23:29N 39°16' W 076°35'0 0.0
2017-May-19 22:49N 39°16' W 076°35'0 0.0
2017-May-19 22:30N 39°16' W 076°35'1 1.5
2017-May-19 22:00N 39°16' W 076°34'1 1.2
2017-May-19 21:23N 39°16' W 076°35'0 0.0
2017-May-19 20:58N 39°16' W 076°35'0 0.0
2017-May-19 20:20N 39°16' W 076°35'0 0.0
2017-May-19 19:53N 39°16' W 076°35'0 0.0
2017-May-19 19:29N 39°16' W 076°35'0 0.0
2017-May-19 19:00N 39°16' W 076°35'0 0.0
2017-May-19 18:21N 39°16' W 076°35'0 0.0
2017-May-19 17:48N 39°16' W 076°35'0 0.0
2017-May-19 17:24N 39°16' W 076°35'0 0.0
2017-May-19 16:56N 39°16' W 076°35'0 0.0
2017-May-19 16:28N 39°16' W 076°35'0 0.0
2017-May-19 15:30N 39°16' W 076°35'0 0.0
2017-May-19 15:00N 39°16' W 076°35'0 0.0
2017-May-19 13:59N 39°16' W 076°35'0 0.0
2017-May-19 13:30N 39°16' W 076°35'0 0.0
2017-May-19 13:00N 39°16' W 076°35'0 0.0
2017-May-19 12:30N 39°16' W 076°35'0 0.0
2017-May-19 12:00N 39°16' W 076°35'0 0.0
2017-May-19 11:30N 39°16' W 076°35'0 0.0
2017-May-19 11:00N 39°16' W 076°35'0 0.0
2017-May-19 10:30N 39°16' W 076°35'0 0.0
2017-May-19 10:00N 39°16' W 076°35'0 0.0
2017-May-19 09:30N 39°16' W 076°35'0 0.0
2017-May-19 09:00N 39°16' W 076°35'0 0.0
2017-May-19 08:30N 39°16' W 076°35'0 0.0
2017-May-19 08:00N 39°16' W 076°35'0 0.0
2017-May-19 07:30N 39°16' W 076°35'0 0.0
2017-May-19 07:00N 39°16' W 076°35'0 0.0
2017-May-19 06:30N 39°16' W 076°35'0 0.0
2017-May-19 06:00N 39°16' W 076°35'0 0.0
2017-May-19 05:30N 39°16' W 076°35'2 3.7
2017-May-19 05:00N 39°15' W 076°33'1 1.3
2017-May-19 04:30N 39°15' W 076°32'1 2.0
2017-May-19 04:00N 39°15' W 076°34'1 1.9
2017-May-19 03:30N 39°15' W 076°35'0 0.1
2017-May-19 03:00N 39°15' W 076°35'0 0.0
2017-May-19 02:30N 39°15' W 076°35'1 2.0
2017-May-19 02:00N 39°16' W 076°34'0 0.3
2017-May-19 01:30N 39°16' W 076°35'2 3.7
2017-May-19 00:59N 39°14' W 076°33'2 4.3
2017-May-19 00:30N 39°16' W 076°35'0 0.2
2017-May-19 00:00N 39°16' W 076°35'0 0.0
2017-May-18 23:30N 39°16' W 076°35'0 0.0
2017-May-18 23:00N 39°16' W 076°35'1 2.4
2017-May-18 22:26N 39°15' W 076°33'1 1.8
2017-May-18 22:00N 39°15' W 076°33'1 2.9
2017-May-18 21:30N 39°16' W 076°34'1 1.2
2017-May-18 20:54N 39°16' W 076°35'0 0.0
2017-May-18 20:28N 39°16' W 076°35'0 0.0
2017-May-18 20:00N 39°16' W 076°35'0 0.0
2017-May-18 19:30N 39°16' W 076°35'3 6.3
2017-May-18 18:58N 39°14' W 076°32'3 6.3
2017-May-18 18:30N 39°12' W 076°29'1 1.3
2017-May-18 17:56N 39°13' W 076°29'3 5.8
2017-May-18 17:30N 39°13' W 076°32'4 7.5
2017-May-18 17:00N 39°16' W 076°35'0 0.0
2017-May-18 16:30N 39°16' W 076°35'0 0.7
2017-May-18 15:59N 39°16' W 076°34'2 4.5
2017-May-18 15:30N 39°15' W 076°32'1 2.5
2017-May-18 14:57N 39°13' W 076°32'2 4.9
2017-May-18 14:30N 39°15' W 076°34'2 1.6
2017-May-18 13:30N 39°16' W 076°35'0 0.0
2017-May-18 13:00N 39°16' W 076°35'0 0.0
2017-May-18 12:30N 39°16' W 076°35'0 0.0
2017-May-18 12:00N 39°16' W 076°35'1 2.2
2017-May-18 11:30N 39°15' W 076°35'0 0.9
2017-May-18 11:00N 39°15' W 076°34'3 6.0
2017-May-18 10:30N 39°13' W 076°32'3 5.9
2017-May-18 10:00N 39°16' W 076°34'0 0.5
2017-May-18 09:30N 39°15' W 076°34'1 2.5
2017-May-18 09:00N 39°14' W 076°33'1 1.9
2017-May-18 08:30N 39°15' W 076°34'1 2.7
2017-May-18 08:00N 39°16' W 076°35'0 0.0
2017-May-18 07:30N 39°16' W 076°35'0 0.0
2017-May-18 07:00N 39°16' W 076°35'0 0.0
2017-May-18 06:30N 39°16' W 076°35'0 0.0
2017-May-18 06:00N 39°16' W 076°35'0 0.0
2017-May-18 05:30N 39°16' W 076°35'0 0.0
2017-May-18 05:00N 39°16' W 076°35'0 0.0
2017-May-18 04:30N 39°16' W 076°35'0 0.0
2017-May-18 04:00N 39°16' W 076°35'0 0.0
2017-May-18 03:30N 39°16' W 076°35'0 0.0
2017-May-18 03:00N 39°16' W 076°35'0 0.0
2017-May-18 02:30N 39°16' W 076°35'0 0.0
2017-May-18 02:00N 39°16' W 076°35'0 0.0
2017-May-18 01:30N 39°16' W 076°35'0 0.0
2017-May-18 01:00N 39°16' W 076°35'0 0.0
2017-May-18 00:30N 39°16' W 076°35'0 0.0
2017-May-18 00:00N 39°16' W 076°35'0 0.0
2017-May-17 23:30N 39°16' W 076°35'0 0.0
2017-May-17 23:00N 39°16' W 076°35'0 0.0
2017-May-17 22:30N 39°16' W 076°35'0 0.0
2017-May-17 22:00N 39°16' W 076°35'1 2.8
2017-May-17 21:30N 39°15' W 076°34'1 2.2
2017-May-17 21:00N 39°15' W 076°32'2 4.7
2017-May-17 20:30N 39°16' W 076°35'0 0.0
2017-May-17 20:00N 39°16' W 076°35'0 0.0
2017-May-17 19:30N 39°16' W 076°35'0 0.0
2017-May-17 19:00N 39°16' W 076°35'0 0.0
2017-May-17 18:30N 39°16' W 076°35'0 0.0
2017-May-17 18:00N 39°16' W 076°35'0 0.0
2017-May-17 17:30N 39°16' W 076°35'0 0.0
2017-May-17 17:00N 39°16' W 076°35'0 0.0
2017-May-17 16:30N 39°16' W 076°35'0 0.0
2017-May-17 16:00N 39°16' W 076°35'0 0.0
2017-May-17 15:30N 39°16' W 076°35'0 0.0
2017-May-17 15:00N 39°16' W 076°35'0 0.0
2017-May-17 14:00N 39°16' W 076°35'1 1.8
2017-May-17 13:30N 39°15' W 076°34'3 5.6
2017-May-17 13:00N 39°13' W 076°35'1 1.6
2017-May-17 12:30N 39°13' W 076°34'2 3.3
2017-May-17 12:00N 39°15' W 076°33'0 0.1
2017-May-17 11:30N 39°15' W 076°33'2 4.1
2017-May-17 11:00N 39°16' W 076°35'0 0.0
2017-May-17 10:30N 39°16' W 076°35'0 0.0
2017-May-17 10:00N 39°16' W 076°35'0 0.0
2017-May-17 09:30N 39°16' W 076°35'0 0.0
2017-May-17 09:00N 39°16' W 076°35'0 0.0
2017-May-17 08:30N 39°16' W 076°35'0 0.0
2017-May-17 08:00N 39°16' W 076°35'0 0.0
2017-May-17 07:30N 39°16' W 076°35'0 0.0
2017-May-17 07:00N 39°16' W 076°35'0 0.0
2017-May-17 06:30N 39°16' W 076°35'0 0.0
2017-May-17 06:00N 39°16' W 076°35'0 0.0
2017-May-17 05:30N 39°16' W 076°35'0 0.0
2017-May-17 05:00N 39°16' W 076°35'0 0.0
2017-May-17 04:30N 39°16' W 076°35'0 0.0
2017-May-17 03:59N 39°16' W 076°35'0 0.0
2017-May-17 03:30N 39°16' W 076°35'0 0.0
2017-May-17 03:00N 39°16' W 076°35'0 0.0
2017-May-17 02:30N 39°16' W 076°35'0 0.0
2017-May-17 02:00N 39°16' W 076°35'0 0.0
2017-May-17 01:29N 39°16' W 076°35'0 0.0
2017-May-17 01:00N 39°16' W 076°35'0 0.0
2017-May-17 00:30N 39°16' W 076°35'0 0.0
2017-May-17 00:00N 39°16' W 076°35'0 0.0
2017-May-16 23:30N 39°16' W 076°35'1 1.8
2017-May-16 23:00N 39°15' W 076°35'0 0.4
2017-May-16 22:28N 39°15' W 076°34'2 3.4
2017-May-16 22:00N 39°15' W 076°32'2 4.4
2017-May-16 21:30N 39°16' W 076°35'0 0.2
2017-May-16 21:00N 39°16' W 076°35'0 0.0
2017-May-16 20:30N 39°16' W 076°35'0 0.0
2017-May-16 20:00N 39°16' W 076°35'0 0.0
2017-May-16 19:30N 39°16' W 076°35'0 0.0
2017-May-16 19:00N 39°16' W 076°35'0 0.0
2017-May-16 18:30N 39°16' W 076°35'0 0.0
2017-May-16 18:00N 39°16' W 076°35'0 0.0
2017-May-16 17:30N 39°16' W 076°35'0 0.0
2017-May-16 17:00N 39°16' W 076°35'0 0.0
2017-May-16 16:30N 39°16' W 076°35'0 0.0
2017-May-16 16:00N 39°16' W 076°35'0 0.0
2017-May-16 15:30N 39°16' W 076°35'0 0.0
2017-May-16 15:00N 39°16' W 076°35'0 0.0
2017-May-16 14:00N 39°16' W 076°35'0 0.0
2017-May-16 13:30N 39°16' W 076°35'0 0.0
2017-May-16 13:00N 39°16' W 076°35'0 0.0
2017-May-16 12:30N 39°16' W 076°35'0 0.0
2017-May-16 12:00N 39°16' W 076°35'0 0.0
2017-May-16 11:30N 39°16' W 076°35'0 0.0
2017-May-16 11:00N 39°16' W 076°35'0 0.0
2017-May-16 10:30N 39°16' W 076°35'0 0.0
2017-May-16 10:00N 39°16' W 076°35'3 5.8
2017-May-16 09:30N 39°13' W 076°34'1 2.0
2017-May-16 09:00N 39°13' W 076°35'1 2.1
2017-May-16 08:30N 39°13' W 076°34'2 3.2
2017-May-16 08:00N 39°13' W 076°32'4 7.5
2017-May-16 07:30N 39°16' W 076°35'0 0.0
2017-May-16 07:00N 39°16' W 076°35'0 0.0
2017-May-16 06:30N 39°16' W 076°35'0 0.0
2017-May-16 06:00N 39°16' W 076°35'0 0.0
2017-May-16 05:30N 39°16' W 076°35'0 0.0
2017-May-16 05:00N 39°16' W 076°35'0 0.0
2017-May-16 04:30N 39°16' W 076°35'0 0.0
2017-May-16 04:00N 39°16' W 076°35'0 0.0
2017-May-16 03:30N 39°16' W 076°35'0 0.0
2017-May-16 03:00N 39°16' W 076°35'0 0.0
2017-May-16 02:30N 39°16' W 076°35'0 0.0
2017-May-16 02:00N 39°16' W 076°35'0 0.0
2017-May-16 01:30N 39°16' W 076°35'2 3.2
2017-May-16 00:51N 39°15' W 076°33'1 0.9
2017-May-15 23:54N 39°15' W 076°34'1 1.2
2017-May-15 23:21N 39°16' W 076°34'1 1.9
2017-May-15 22:58N 39°16' W 076°35'0 0.0
2017-May-15 22:29N 39°16' W 076°35'0 0.0
2017-May-15 21:55N 39°16' W 076°35'0 0.0
2017-May-15 21:14N 39°16' W 076°35'0 0.0
2017-May-15 20:43N 39°16' W 076°35'0 0.0
2017-May-15 19:41N 39°16' W 076°35'3 1.6
2017-May-15 17:53N 39°13' W 076°34'2 4.1
2017-May-15 17:29N 39°13' W 076°32'0 0.2
2017-May-15 16:52N 39°13' W 076°32'  
Track history (hours):
 
Tides and Currents Weather Stations Pressure Air Temp Water Temp Dewpoint Dewpoint Depression Visibility Wind Speed Wind Dir Waves Ship Positions

Kaleen Mc Allister

Owner: MC ALLISTER TOWING & TRANSPORTATION INC, NEW YORK, NY. More information available from US FCC via Universal Licensing System and Coast Guard Vessel Documentation Center.

Last reported at 2017-May-25 16:51 UTC. Time now 2017-May-25 18:01 UTC.
Position N 39°16' W 076°35'.

Length 31 m; draft 4 m.

Type: Tug. MMSI: 366891960.

Date/timePositionNaut miles runAvg speedWind from/ knotsBaromVisibWave heightAir tempDewpointWater temp
2017-May-25 16:51N 39°16' W 076°35'0 0.0
2017-May-25 16:29N 39°16' W 076°35'0 0.0
2017-May-25 15:32N 39°16' W 076°35'0 0.0
2017-May-25 15:19N 39°16' W 076°35'0 0.0
2017-May-25 14:43N 39°16' W 076°35'0 0.0
2017-May-25 13:30N 39°16' W 076°35'0 0.0
2017-May-25 12:43N 39°16' W 076°35'0 0.0
2017-May-25 12:30N 39°16' W 076°35'0 0.0
2017-May-25 11:57N 39°16' W 076°35'0 0.0
2017-May-25 11:30N 39°16' W 076°35'0 0.0
2017-May-25 11:00N 39°16' W 076°35'0 0.0
2017-May-25 10:25N 39°16' W 076°35'0 0.0
2017-May-25 09:57N 39°16' W 076°35'0 0.0
2017-May-25 09:30N 39°16' W 076°35'0 0.0
2017-May-25 08:51N 39°16' W 076°35'0 0.0
2017-May-25 08:30N 39°16' W 076°35'0 0.0
2017-May-25 08:00N 39°16' W 076°35'0 0.0
2017-May-25 07:30N 39°16' W 076°35'0 0.0
2017-May-25 07:00N 39°16' W 076°35'0 0.0
2017-May-25 06:23N 39°16' W 076°35'0 0.0
2017-May-25 06:00N 39°16' W 076°35'0 0.0
2017-May-25 05:30N 39°16' W 076°35'0 0.0
2017-May-25 05:00N 39°16' W 076°35'0 0.0
2017-May-25 04:30N 39°16' W 076°35'0 0.0
2017-May-25 04:00N 39°16' W 076°35'0 0.0
2017-May-25 03:30N 39°16' W 076°35'0 0.0
2017-May-25 03:00N 39°16' W 076°35'0 0.0
2017-May-25 02:30N 39°16' W 076°35'0 0.0
2017-May-25 02:00N 39°16' W 076°35'0 0.0
2017-May-25 01:30N 39°16' W 076°35'0 0.0
2017-May-25 01:00N 39°16' W 076°35'0 0.0
2017-May-25 00:30N 39°16' W 076°35'0 0.0
2017-May-25 00:00N 39°16' W 076°35'0 0.0
2017-May-24 23:30N 39°16' W 076°35'0 0.0
2017-May-24 22:58N 39°16' W 076°35'0 0.0
2017-May-24 22:30N 39°16' W 076°35'0 0.0
2017-May-24 22:00N 39°16' W 076°35'0 0.0
2017-May-24 21:29N 39°16' W 076°35'0 0.0
2017-May-24 20:55N 39°16' W 076°35'0 0.0
2017-May-24 20:30N 39°16' W 076°35'0 0.0
2017-May-24 20:00N 39°16' W 076°35'0 0.0
2017-May-24 19:30N 39°16' W 076°35'0 0.0
2017-May-24 19:00N 39°16' W 076°35'0 0.0
2017-May-24 18:30N 39°16' W 076°35'0 0.0
2017-May-24 17:00N 39°16' W 076°35'1 1.6
2017-May-24 16:30N 39°15' W 076°35'0 0.2
2017-May-24 15:56N 39°15' W 076°35'2 4.0
2017-May-24 15:30N 39°15' W 076°32'1 1.3
2017-May-24 15:00N 39°15' W 076°32'0 0.0
2017-May-24 14:30N 39°15' W 076°32'3 3.1
2017-May-24 13:30N 39°13' W 076°35'1 2.1
2017-May-24 13:00N 39°13' W 076°34'1 3.0
2017-May-24 12:30N 39°13' W 076°32'2 3.3
2017-May-24 12:00N 39°15' W 076°32'0 0.0
2017-May-24 11:30N 39°15' W 076°32'1 1.7
2017-May-24 11:00N 39°15' W 076°33'1 1.5
2017-May-24 10:25N 39°15' W 076°32'1 1.3
2017-May-24 09:53N 39°14' W 076°33'3 6.4
2017-May-24 09:29N 39°16' W 076°35'0 0.0
2017-May-24 08:55N 39°16' W 076°35'0 0.0
2017-May-24 08:30N 39°16' W 076°35'0 0.0
2017-May-24 08:00N 39°16' W 076°35'0 0.0
2017-May-24 07:30N 39°16' W 076°35'0 0.0
2017-May-24 07:00N 39°16' W 076°35'0 0.0
2017-May-24 06:30N 39°16' W 076°35'0 0.0
2017-May-24 06:00N 39°16' W 076°35'0 0.0
2017-May-24 05:19N 39°16' W 076°35'0 0.0
2017-May-24 05:00N 39°16' W 076°35'0 0.0
2017-May-24 03:54N 39°16' W 076°35'0 0.0
2017-May-24 03:28N 39°16' W 076°35'0 0.0
2017-May-24 03:00N 39°16' W 076°35'0 0.0
2017-May-24 02:29N 39°16' W 076°35'0 0.0
2017-May-23 23:22N 39°16' W 076°35'0 0.0
2017-May-23 23:00N 39°16' W 076°35'0 0.0
2017-May-23 22:30N 39°16' W 076°35'0 0.0
2017-May-23 21:59N 39°16' W 076°35'0 0.0
2017-May-23 21:30N 39°16' W 076°35'0 0.0
2017-May-23 21:00N 39°16' W 076°35'0 0.0
2017-May-23 20:30N 39°16' W 076°35'0 0.0
2017-May-23 20:00N 39°16' W 076°35'0 0.0
2017-May-23 19:29N 39°16' W 076°35'0 0.0
2017-May-23 18:56N 39°16' W 076°35'0 0.4
2017-May-23 18:30N 39°16' W 076°35'2 5.0
2017-May-23 18:00N 39°15' W 076°32'1 1.3
2017-May-23 17:29N 39°14' W 076°33'2 3.5
2017-May-23 17:00N 39°15' W 076°35'1 0.8
2017-May-23 15:37N 39°16' W 076°35'0 1.3
2017-May-23 15:30N 39°16' W 076°35'1 2.4
2017-May-23 15:00N 39°15' W 076°34'1 2.1
2017-May-23 14:30N 39°16' W 076°35'0 0.0
2017-May-23 13:30N 39°16' W 076°35'0 0.0
2017-May-23 12:58N 39°16' W 076°35'0 0.0
2017-May-23 12:30N 39°16' W 076°35'0 0.0
2017-May-23 12:00N 39°16' W 076°35'0 0.0
2017-May-23 11:30N 39°16' W 076°35'0 0.0
2017-May-23 11:00N 39°16' W 076°35'0 0.0
2017-May-23 10:20N 39°16' W 076°35'0 0.0
2017-May-23 10:00N 39°16' W 076°35'0 0.0
2017-May-23 09:30N 39°16' W 076°35'1 2.1
2017-May-23 09:00N 39°15' W 076°35'0 0.8
2017-May-23 08:27N 39°15' W 076°34'2 4.7
2017-May-23 08:00N 39°14' W 076°33'3 5.9
2017-May-23 07:30N 39°16' W 076°35'0 0.0
2017-May-23 07:00N 39°16' W 076°35'0 0.0
2017-May-23 06:30N 39°16' W 076°35'0 0.0
2017-May-23 06:00N 39°16' W 076°35'0 0.0
2017-May-23 05:30N 39°16' W 076°35'0 0.0
2017-May-23 05:00N 39°16' W 076°35'0 0.0
2017-May-23 04:30N 39°16' W 076°35'0 0.0
2017-May-23 04:00N 39°16' W 076°35'0 0.0
2017-May-23 03:30N 39°16' W 076°35'0 0.0
2017-May-23 03:00N 39°16' W 076°35'0 0.0
2017-May-23 02:30N 39°16' W 076°35'0 0.0
2017-May-23 02:00N 39°16' W 076°35'0 0.0
2017-May-23 01:30N 39°16' W 076°35'0 0.0
2017-May-23 01:00N 39°16' W 076°35'0 0.0
2017-May-23 00:30N 39°16' W 076°35'0 0.0
2017-May-23 00:00N 39°16' W 076°35'0 0.0
2017-May-22 23:29N 39°16' W 076°35'0 0.0
2017-May-22 22:59N 39°16' W 076°35'0 0.0
2017-May-22 22:30N 39°16' W 076°35'0 0.0
2017-May-22 21:59N 39°16' W 076°35'0 0.0
2017-May-22 21:16N 39°16' W 076°35'0 0.0
2017-May-22 20:53N 39°16' W 076°35'0 0.0
2017-May-22 20:30N 39°16' W 076°35'0 0.0
2017-May-22 20:00N 39°16' W 076°35'0 0.0
2017-May-22 19:29N 39°16' W 076°35'0 0.0
2017-May-22 19:00N 39°16' W 076°35'0 0.0
2017-May-22 18:28N 39°16' W 076°35'0 0.0
2017-May-22 17:22N 39°16' W 076°35'0 0.0
2017-May-22 16:54N 39°16' W 076°35'0 0.0
2017-May-22 16:28N 39°16' W 076°35'0 0.0
2017-May-22 15:48N 39°16' W 076°35'0 0.0
2017-May-22 15:19N 39°16' W 076°35'0 0.0
2017-May-22 14:45N 39°16' W 076°35'0 0.0
2017-May-22 14:00N 39°16' W 076°35'0 0.0
2017-May-22 13:23N 39°16' W 076°35'0 0.3
2017-May-22 13:00N 39°16' W 076°35'2 3.5
2017-May-22 12:20N 39°14' W 076°33'1 2.7
2017-May-22 12:00N 39°15' W 076°34'1 0.3
2017-May-22 07:08N 39°16' W 076°35'0 0.0
2017-May-22 07:00N 39°16' W 076°35'0 0.0
2017-May-22 06:30N 39°16' W 076°35'0 0.0
2017-May-22 06:00N 39°16' W 076°35'0 0.0
2017-May-22 05:30N 39°16' W 076°35'0 0.0
2017-May-22 05:00N 39°16' W 076°35'0 0.0
2017-May-22 04:30N 39°16' W 076°35'0 0.0
2017-May-22 04:00N 39°16' W 076°35'0 0.0
2017-May-22 03:30N 39°16' W 076°35'0 0.0
2017-May-22 03:00N 39°16' W 076°35'0 0.0
2017-May-22 02:30N 39°16' W 076°35'0 0.0
2017-May-22 02:00N 39°16' W 076°35'0 0.0
2017-May-22 01:30N 39°16' W 076°35'0 0.0
2017-May-22 01:00N 39°16' W 076°35'0 0.0
2017-May-22 00:30N 39°16' W 076°35'0 0.0
2017-May-22 00:00N 39°16' W 076°35'0 0.0
2017-May-21 23:30N 39°16' W 076°35'0 0.0
2017-May-21 23:00N 39°16' W 076°35'3 6.8
2017-May-21 22:30N 39°13' W 076°32'1 1.3
2017-May-21 22:00N 39°13' W 076°32'2 3.9
2017-May-21 21:30N 39°15' W 076°33'2 3.9
2017-May-21 21:00N 39°16' W 076°35'0 0.0
2017-May-21 20:30N 39°16' W 076°35'0 0.0
2017-May-21 20:00N 39°16' W 076°35'0 0.0
2017-May-21 19:30N 39°16' W 076°35'0 0.0
2017-May-21 19:00N 39°16' W 076°35'0 0.0
2017-May-21 18:30N 39°16' W 076°35'0 0.0
2017-May-21 18:00N 39°16' W 076°35'0 0.0
2017-May-21 17:30N 39°16' W 076°35'0 0.0
2017-May-21 17:00N 39°16' W 076°35'0 0.0
2017-May-21 16:30N 39°16' W 076°35'0 0.0
2017-May-21 16:00N 39°16' W 076°35'0 0.0
2017-May-21 15:30N 39°16' W 076°35'0 0.0
2017-May-21 15:00N 39°16' W 076°35'0 0.0
2017-May-21 14:30N 39°16' W 076°35'0 0.0
2017-May-21 13:30N 39°16' W 076°35'0 0.0
2017-May-21 13:00N 39°16' W 076°35'0 0.0
2017-May-21 12:30N 39°16' W 076°35'0 0.0
2017-May-21 12:00N 39°16' W 076°35'0 0.0
2017-May-21 11:30N 39°16' W 076°35'0 0.0
2017-May-21 11:00N 39°16' W 076°35'0 0.0
2017-May-21 10:30N 39°16' W 076°35'0 0.0
2017-May-21 10:00N 39°16' W 076°35'0 0.0
2017-May-21 09:30N 39°16' W 076°35'0 0.0
2017-May-21 09:00N 39°16' W 076°35'0 0.0
2017-May-21 08:30N 39°16' W 076°35'0 0.0
2017-May-21 08:00N 39°16' W 076°35'0 0.0
2017-May-21 07:30N 39°16' W 076°35'0 0.0
2017-May-21 07:00N 39°16' W 076°35'0 0.0
2017-May-21 06:30N 39°16' W 076°35'0 0.0
2017-May-21 06:00N 39°16' W 076°35'0 0.0
2017-May-21 05:30N 39°16' W 076°35'0 0.0
2017-May-21 05:00N 39°16' W 076°35'0 0.0
2017-May-21 04:30N 39°16' W 076°35'0 0.0
2017-May-21 04:00N 39°16' W 076°35'0 0.5
2017-May-21 03:30N 39°16' W 076°35'1 2.7
2017-May-21 03:00N 39°15' W 076°33'0 0.7
2017-May-21 02:30N 39°15' W 076°33'1 2.7
2017-May-21 02:00N 39°16' W 076°35'0 0.0
2017-May-21 01:30N 39°16' W 076°35'0 0.0
2017-May-21 01:00N 39°16' W 076°35'0 0.0
2017-May-21 00:29N 39°16' W 076°35'0 0.0
2017-May-21 00:00N 39°16' W 076°35'0 0.0
2017-May-20 23:30N 39°16' W 076°35'0 0.0
2017-May-20 23:00N 39°16' W 076°35'0 0.0
2017-May-20 22:30N 39°16' W 076°35'0 0.0
2017-May-20 22:00N 39°16' W 076°35'0 0.0
2017-May-20 21:30N 39°16' W 076°35'0 0.0
2017-May-20 20:57N 39°16' W 076°35'0 0.0
2017-May-20 20:30N 39°16' W 076°35'0 0.0
2017-May-20 20:00N 39°16' W 076°35'0 0.0
2017-May-20 19:30N 39°16' W 076°35'0 0.0
2017-May-20 19:00N 39°16' W 076°35'0 0.0
2017-May-20 18:30N 39°16' W 076°35'0 0.0
2017-May-20 18:00N 39°16' W 076°35'0 0.0
2017-May-20 17:30N 39°16' W 076°35'0 0.8
2017-May-20 17:00N 39°16' W 076°34'0 0.8
2017-May-20 16:30N 39°16' W 076°35'0 0.0
2017-May-20 16:00N 39°16' W 076°35'0 0.0
2017-May-20 15:30N 39°16' W 076°35'0 0.0
2017-May-20 15:00N 39°16' W 076°35'0 0.0
2017-May-20 14:00N 39°16' W 076°35'3 5.2
2017-May-20 13:30N 39°14' W 076°33'3 5.1
2017-May-20 13:00N 39°16' W 076°35'0 0.0
2017-May-20 12:30N 39°16' W 076°35'0 0.0
2017-May-20 12:00N 39°16' W 076°35'0 0.0
2017-May-20 11:30N 39°16' W 076°35'0 0.0
2017-May-20 11:00N 39°16' W 076°35'0 0.0
2017-May-20 10:30N 39°16' W 076°35'0 0.0
2017-May-20 10:00N 39°16' W 076°35'0 0.0
2017-May-20 09:30N 39°16' W 076°35'0 0.0
2017-May-20 09:00N 39°16' W 076°35'0 0.0
2017-May-20 08:30N 39°16' W 076°35'0 0.0
2017-May-20 08:00N 39°16' W 076°35'0 0.0
2017-May-20 07:28N 39°16' W 076°35'0 0.0
2017-May-20 06:53N 39°16' W 076°35'0 0.0
2017-May-20 05:53N 39°16' W 076°35'0 0.0
2017-May-20 03:15N 39°16' W 076°35'0 0.0
2017-May-20 03:00N 39°16' W 076°35'0 0.0
2017-May-20 02:30N 39°16' W 076°35'0 0.0
2017-May-20 01:59N 39°16' W 076°35'0 0.6
2017-May-20 01:30N 39°16' W 076°35'1 2.1
2017-May-20 01:00N 39°15' W 076°34'1 2.6
2017-May-20 00:30N 39°16' W 076°35'0 0.0
2017-May-20 00:00N 39°16' W 076°35'0 0.0
2017-May-19 23:29N 39°16' W 076°35'0 0.0
2017-May-19 22:49N 39°16' W 076°35'0 0.0
2017-May-19 22:30N 39°16' W 076°35'1 1.5
2017-May-19 22:00N 39°16' W 076°34'1 1.2
2017-May-19 21:23N 39°16' W 076°35'0 0.0
2017-May-19 20:58N 39°16' W 076°35'0 0.0
2017-May-19 20:20N 39°16' W 076°35'0 0.0
2017-May-19 19:53N 39°16' W 076°35'0 0.0
2017-May-19 19:29N 39°16' W 076°35'0 0.0
2017-May-19 19:00N 39°16' W 076°35'0 0.0
2017-May-19 18:21N 39°16' W 076°35'0 0.0
2017-May-19 17:48N 39°16' W 076°35'0 0.0
2017-May-19 17:24N 39°16' W 076°35'0 0.0
2017-May-19 16:56N 39°16' W 076°35'0 0.0
2017-May-19 16:28N 39°16' W 076°35'0 0.0
2017-May-19 15:30N 39°16' W 076°35'0 0.0
2017-May-19 15:00N 39°16' W 076°35'0 0.0
2017-May-19 13:59N 39°16' W 076°35'0 0.0
2017-May-19 13:30N 39°16' W 076°35'0 0.0
2017-May-19 13:00N 39°16' W 076°35'0 0.0
2017-May-19 12:30N 39°16' W 076°35'0 0.0
2017-May-19 12:00N 39°16' W 076°35'0 0.0
2017-May-19 11:30N 39°16' W 076°35'0 0.0
2017-May-19 11:00N 39°16' W 076°35'0 0.0
2017-May-19 10:30N 39°16' W 076°35'0 0.0
2017-May-19 10:00N 39°16' W 076°35'0 0.0
2017-May-19 09:30N 39°16' W 076°35'0 0.0
2017-May-19 09:00N 39°16' W 076°35'0 0.0
2017-May-19 08:30N 39°16' W 076°35'0 0.0
2017-May-19 08:00N 39°16' W 076°35'0 0.0
2017-May-19 07:30N 39°16' W 076°35'0 0.0
2017-May-19 07:00N 39°16' W 076°35'0 0.0
2017-May-19 06:30N 39°16' W 076°35'0 0.0
2017-May-19 06:00N 39°16' W 076°35'0 0.0
2017-May-19 05:30N 39°16' W 076°35'2 3.7
2017-May-19 05:00N 39°15' W 076°33'1 1.3
2017-May-19 04:30N 39°15' W 076°32'1 2.0
2017-May-19 04:00N 39°15' W 076°34'1 1.9
2017-May-19 03:30N 39°15' W 076°35'0 0.1
2017-May-19 03:00N 39°15' W 076°35'0 0.0
2017-May-19 02:30N 39°15' W 076°35'1 2.0
2017-May-19 02:00N 39°16' W 076°34'0 0.3
2017-May-19 01:30N 39°16' W 076°35'2 3.7
2017-May-19 00:59N 39°14' W 076°33'2 4.3
2017-May-19 00:30N 39°16' W 076°35'0 0.2
2017-May-19 00:00N 39°16' W 076°35'0 0.0
2017-May-18 23:30N 39°16' W 076°35'0 0.0
2017-May-18 23:00N 39°16' W 076°35'1 2.4
2017-May-18 22:26N 39°15' W 076°33'1 1.8
2017-May-18 22:00N 39°15' W 076°33'1 2.9
2017-May-18 21:30N 39°16' W 076°34'1 1.2
2017-May-18 20:54N 39°16' W 076°35'0 0.0
2017-May-18 20:28N 39°16' W 076°35'0 0.0
2017-May-18 20:00N 39°16' W 076°35'0 0.0
2017-May-18 19:30N 39°16' W 076°35'3 6.3
2017-May-18 18:58N 39°14' W 076°32'3 6.3
2017-May-18 18:30N 39°12' W 076°29'1 1.3
2017-May-18 17:56N 39°13' W 076°29'3 5.8
2017-May-18 17:30N 39°13' W 076°32'4 7.5
2017-May-18 17:00N 39°16' W 076°35'0 0.0
2017-May-18 16:30N 39°16' W 076°35'0 0.7
2017-May-18 15:59N 39°16' W 076°34'2 4.5
2017-May-18 15:30N 39°15' W 076°32'1 2.5
2017-May-18 14:57N 39°13' W 076°32'2 4.9
2017-May-18 14:30N 39°15' W 076°34'2 1.6
2017-May-18 13:30N 39°16' W 076°35'0 0.0
2017-May-18 13:00N 39°16' W 076°35'0 0.0
2017-May-18 12:30N 39°16' W 076°35'0 0.0
2017-May-18 12:00N 39°16' W 076°35'1 2.2
2017-May-18 11:30N 39°15' W 076°35'0 0.9
2017-May-18 11:00N 39°15' W 076°34'3 6.0
2017-May-18 10:30N 39°13' W 076°32'3 5.9
2017-May-18 10:00N 39°16' W 076°34'0 0.5
2017-May-18 09:30N 39°15' W 076°34'1 2.5
2017-May-18 09:00N 39°14' W 076°33'1 1.9
2017-May-18 08:30N 39°15' W 076°34'1 2.7
2017-May-18 08:00N 39°16' W 076°35'0 0.0
2017-May-18 07:30N 39°16' W 076°35'0 0.0
2017-May-18 07:00N 39°16' W 076°35'0 0.0
2017-May-18 06:30N 39°16' W 076°35'0 0.0
2017-May-18 06:00N 39°16' W 076°35'0 0.0
2017-May-18 05:30N 39°16' W 076°35'0 0.0
2017-May-18 05:00N 39°16' W 076°35'0 0.0
2017-May-18 04:30N 39°16' W 076°35'0 0.0
2017-May-18 04:00N 39°16' W 076°35'0 0.0
2017-May-18 03:30N 39°16' W 076°35'0 0.0
2017-May-18 03:00N 39°16' W 076°35'0 0.0
2017-May-18 02:30N 39°16' W 076°35'0 0.0
2017-May-18 02:00N 39°16' W 076°35'0 0.0
2017-May-18 01:30N 39°16' W 076°35'0 0.0
2017-May-18 01:00N 39°16' W 076°35'0 0.0
2017-May-18 00:30N 39°16' W 076°35'0 0.0
2017-May-18 00:00N 39°16' W 076°35'0 0.0
2017-May-17 23:30N 39°16' W 076°35'0 0.0
2017-May-17 23:00N 39°16' W 076°35'0 0.0
2017-May-17 22:30N 39°16' W 076°35'0 0.0
2017-May-17 22:00N 39°16' W 076°35'1 2.8
2017-May-17 21:30N 39°15' W 076°34'1 2.2
2017-May-17 21:00N 39°15' W 076°32'2 4.7
2017-May-17 20:30N 39°16' W 076°35'0 0.0
2017-May-17 20:00N 39°16' W 076°35'0 0.0
2017-May-17 19:30N 39°16' W 076°35'0 0.0
2017-May-17 19:00N 39°16' W 076°35'0 0.0
2017-May-17 18:30N 39°16' W 076°35'0 0.0
2017-May-17 18:00N 39°16' W 076°35'0 0.0
2017-May-17 17:30N 39°16' W 076°35'0 0.0
2017-May-17 17:00N 39°16' W 076°35'0 0.0
2017-May-17 16:30N 39°16' W 076°35'0 0.0
2017-May-17 16:00N 39°16' W 076°35'0 0.0
2017-May-17 15:30N 39°16' W 076°35'0 0.0
2017-May-17 15:00N 39°16' W 076°35'0 0.0
2017-May-17 14:00N 39°16' W 076°35'1 1.8
2017-May-17 13:30N 39°15' W 076°34'3 5.6
2017-May-17 13:00N 39°13' W 076°35'1 1.6
2017-May-17 12:30N 39°13' W 076°34'2 3.3
2017-May-17 12:00N 39°15' W 076°33'0 0.1
2017-May-17 11:30N 39°15' W 076°33'2 4.1
2017-May-17 11:00N 39°16' W 076°35'0 0.0
2017-May-17 10:30N 39°16' W 076°35'0 0.0
2017-May-17 10:00N 39°16' W 076°35'0 0.0
2017-May-17 09:30N 39°16' W 076°35'0 0.0
2017-May-17 09:00N 39°16' W 076°35'0 0.0
2017-May-17 08:30N 39°16' W 076°35'0 0.0
2017-May-17 08:00N 39°16' W 076°35'0 0.0
2017-May-17 07:30N 39°16' W 076°35'0 0.0
2017-May-17 07:00N 39°16' W 076°35'0 0.0
2017-May-17 06:30N 39°16' W 076°35'0 0.0
2017-May-17 06:00N 39°16' W 076°35'0 0.0
2017-May-17 05:30N 39°16' W 076°35'0 0.0
2017-May-17 05:00N 39°16' W 076°35'0 0.0
2017-May-17 04:30N 39°16' W 076°35'0 0.0
2017-May-17 03:59N 39°16' W 076°35'0 0.0
2017-May-17 03:30N 39°16' W 076°35'0 0.0
2017-May-17 03:00N 39°16' W 076°35'0 0.0
2017-May-17 02:30N 39°16' W 076°35'0 0.0
2017-May-17 02:00N 39°16' W 076°35'0 0.0
2017-May-17 01:29N 39°16' W 076°35'0 0.0
2017-May-17 01:00N 39°16' W 076°35'0 0.0
2017-May-17 00:30N 39°16' W 076°35'0 0.0
2017-May-17 00:00N 39°16' W 076°35'0 0.0
2017-May-16 23:30N 39°16' W 076°35'1 1.8
2017-May-16 23:00N 39°15' W 076°35'0 0.4
2017-May-16 22:28N 39°15' W 076°34'2 3.4
2017-May-16 22:00N 39°15' W 076°32'2 4.4
2017-May-16 21:30N 39°16' W 076°35'0 0.2
2017-May-16 21:00N 39°16' W 076°35'0 0.0
2017-May-16 20:30N 39°16' W 076°35'0 0.0
2017-May-16 20:00N 39°16' W 076°35'0 0.0
2017-May-16 19:30N 39°16' W 076°35'0 0.0
2017-May-16 19:00N 39°16' W 076°35'0 0.0
2017-May-16 18:30N 39°16' W 076°35'0 0.0
2017-May-16 18:00N 39°16' W 076°35'0 0.0
2017-May-16 17:30N 39°16' W 076°35'0 0.0
2017-May-16 17:00N 39°16' W 076°35'0 0.0
2017-May-16 16:30N 39°16' W 076°35'0 0.0
2017-May-16 16:00N 39°16' W 076°35'0 0.0
2017-May-16 15:30N 39°16' W 076°35'0 0.0
2017-May-16 15:00N 39°16' W 076°35'0 0.0
2017-May-16 14:00N 39°16' W 076°35'0 0.0
2017-May-16 13:30N 39°16' W 076°35'0 0.0
2017-May-16 13:00N 39°16' W 076°35'0 0.0
2017-May-16 12:30N 39°16' W 076°35'0 0.0
2017-May-16 12:00N 39°16' W 076°35'0 0.0
2017-May-16 11:30N 39°16' W 076°35'0 0.0
2017-May-16 11:00N 39°16' W 076°35'0 0.0
2017-May-16 10:30N 39°16' W 076°35'0 0.0
2017-May-16 10:00N 39°16' W 076°35'3 5.8
2017-May-16 09:30N 39°13' W 076°34'1 2.0
2017-May-16 09:00N 39°13' W 076°35'1 2.1
2017-May-16 08:30N 39°13' W 076°34'2 3.2
2017-May-16 08:00N 39°13' W 076°32'4 7.5
2017-May-16 07:30N 39°16' W 076°35'0 0.0
2017-May-16 07:00N 39°16' W 076°35'0 0.0
2017-May-16 06:30N 39°16' W 076°35'0 0.0
2017-May-16 06:00N 39°16' W 076°35'0 0.0
2017-May-16 05:30N 39°16' W 076°35'0 0.0
2017-May-16 05:00N 39°16' W 076°35'0 0.0
2017-May-16 04:30N 39°16' W 076°35'0 0.0
2017-May-16 04:00N 39°16' W 076°35'0 0.0
2017-May-16 03:30N 39°16' W 076°35'0 0.0
2017-May-16 03:00N 39°16' W 076°35'0 0.0
2017-May-16 02:30N 39°16' W 076°35'0 0.0
2017-May-16 02:00N 39°16' W 076°35'0 0.0
2017-May-16 01:30N 39°16' W 076°35'2 3.2
2017-May-16 00:51N 39°15' W 076°33'1 0.9
2017-May-15 23:54N 39°15' W 076°34'1 1.2
2017-May-15 23:21N 39°16' W 076°34'1 1.9
2017-May-15 22:58N 39°16' W 076°35'0 0.0
2017-May-15 22:29N 39°16' W 076°35'0 0.0
2017-May-15 21:55N 39°16' W 076°35'0 0.0
2017-May-15 21:14N 39°16' W 076°35'0 0.0
2017-May-15 20:43N 39°16' W 076°35'0 0.0
2017-May-15 19:41N 39°16' W 076°35'3 1.6
2017-May-15 17:53N 39°13' W 076°34'2 4.1
2017-May-15 17:29N 39°13' W 076°32'0 0.2
2017-May-15 16:52N 39°13' W 076°32'  

Dump ship's entire track history